sensor_id;sensor_type;location;lat;lon;timestamp;P1;durP1;ratioP1;P2;durP2;ratioP2
69596;SDS011;70000;51.176;-115.568;2023-12-22T00:01:54;5.60;;;1.50;;
69596;SDS011;70000;51.176;-115.568;2023-12-22T00:04:24;4.90;;;1.60;;
69596;SDS011;70000;51.176;-115.568;2023-12-22T00:06:55;4.70;;;1.60;;
69596;SDS011;70000;51.176;-115.568;2023-12-22T00:09:24;4.90;;;1.70;;
69596;SDS011;70000;51.176;-115.568;2023-12-22T00:14:51;4.30;;;1.50;;
69596;SDS011;70000;51.176;-115.568;2023-12-22T00:17:20;5.30;;;1.40;;
69596;SDS011;70000;51.176;-115.568;2023-12-22T00:19:49;4.60;;;1.30;;
69596;SDS011;70000;51.176;-115.568;2023-12-22T00:22:18;4.10;;;1.40;;
69596;SDS011;70000;51.176;-115.568;2023-12-22T00:24:47;5.50;;;1.50;;
69596;SDS011;70000;51.176;-115.568;2023-12-22T00:27:15;5.10;;;1.50;;
69596;SDS011;70000;51.176;-115.568;2023-12-22T00:29:45;4.60;;;1.30;;
69596;SDS011;70000;51.176;-115.568;2023-12-22T00:32:16;5.00;;;1.70;;
69596;SDS011;70000;51.176;-115.568;2023-12-22T00:34:45;4.80;;;1.40;;
69596;SDS011;70000;51.176;-115.568;2023-12-22T00:37:14;4.70;;;1.70;;
69596;SDS011;70000;51.176;-115.568;2023-12-22T00:39:43;5.20;;;1.80;;
69596;SDS011;70000;51.176;-115.568;2023-12-22T00:42:12;5.00;;;1.70;;
69596;SDS011;70000;51.176;-115.568;2023-12-22T00:44:42;5.50;;;1.70;;
69596;SDS011;70000;51.176;-115.568;2023-12-22T00:47:10;4.50;;;1.50;;
69596;SDS011;70000;51.176;-115.568;2023-12-22T00:49:40;4.90;;;1.70;;
69596;SDS011;70000;51.176;-115.568;2023-12-22T00:52:11;5.00;;;1.60;;
69596;SDS011;70000;51.176;-115.568;2023-12-22T00:54:40;5.20;;;2.00;;
69596;SDS011;70000;51.176;-115.568;2023-12-22T01:00:14;5.90;;;2.40;;
69596;SDS011;70000;51.176;-115.568;2023-12-22T01:02:43;4.60;;;1.80;;
69596;SDS011;70000;51.176;-115.568;2023-12-22T01:05:12;5.00;;;1.90;;
69596;SDS011;70000;51.176;-115.568;2023-12-22T01:07:41;4.50;;;1.60;;
69596;SDS011;70000;51.176;-115.568;2023-12-22T01:10:10;4.50;;;1.60;;
69596;SDS011;70000;51.176;-115.568;2023-12-22T01:12:39;5.00;;;1.60;;
69596;SDS011;70000;51.176;-115.568;2023-12-22T01:15:08;5.50;;;1.80;;
69596;SDS011;70000;51.176;-115.568;2023-12-22T01:17:37;5.40;;;1.80;;
69596;SDS011;70000;51.176;-115.568;2023-12-22T01:20:07;5.60;;;2.00;;
69596;SDS011;70000;51.176;-115.568;2023-12-22T01:22:36;5.70;;;2.20;;
69596;SDS011;70000;51.176;-115.568;2023-12-22T01:25:06;6.80;;;2.90;;
69596;SDS011;70000;51.176;-115.568;2023-12-22T01:27:35;4.60;;;1.50;;
69596;SDS011;70000;51.176;-115.568;2023-12-22T01:30:05;4.70;;;1.60;;
69596;SDS011;70000;51.176;-115.568;2023-12-22T01:32:34;5.70;;;1.60;;
69596;SDS011;70000;51.176;-115.568;2023-12-22T01:35:05;4.50;;;1.60;;
69596;SDS011;70000;51.176;-115.568;2023-12-22T01:37:37;5.00;;;2.00;;
69596;SDS011;70000;51.176;-115.568;2023-12-22T01:40:07;4.80;;;1.50;;
69596;SDS011;70000;51.176;-115.568;2023-12-22T01:42:36;4.20;;;1.30;;
69596;SDS011;70000;51.176;-115.568;2023-12-22T01:45:06;4.60;;;1.60;;
69596;SDS011;70000;51.176;-115.568;2023-12-22T01:47:35;4.50;;;1.60;;
69596;SDS011;70000;51.176;-115.568;2023-12-22T01:50:05;4.80;;;1.70;;
69596;SDS011;70000;51.176;-115.568;2023-12-22T01:52:35;6.00;;;2.50;;
69596;SDS011;70000;51.176;-115.568;2023-12-22T01:55:06;6.40;;;2.40;;
69596;SDS011;70000;51.176;-115.568;2023-12-22T01:57:40;5.40;;;2.00;;
69596;SDS011;70000;51.176;-115.568;2023-12-22T02:00:10;5.50;;;1.90;;
69596;SDS011;70000;51.176;-115.568;2023-12-22T02:02:41;6.50;;;2.80;;
69596;SDS011;70000;51.176;-115.568;2023-12-22T02:05:13;6.70;;;3.10;;
69596;SDS011;70000;51.176;-115.568;2023-12-22T02:07:43;5.60;;;2.00;;
69596;SDS011;70000;51.176;-115.568;2023-12-22T02:10:13;5.60;;;1.70;;
69596;SDS011;70000;51.176;-115.568;2023-12-22T02:12:42;4.80;;;1.60;;
69596;SDS011;70000;51.176;-115.568;2023-12-22T02:15:12;6.40;;;2.60;;
69596;SDS011;70000;51.176;-115.568;2023-12-22T02:17:52;6.30;;;2.50;;
69596;SDS011;70000;51.176;-115.568;2023-12-22T02:20:27;5.30;;;1.80;;
69596;SDS011;70000;51.176;-115.568;2023-12-22T02:22:58;6.10;;;2.10;;
69596;SDS011;70000;51.176;-115.568;2023-12-22T02:25:27;7.70;;;2.90;;
69596;SDS011;70000;51.176;-115.568;2023-12-22T02:28:22;6.10;;;2.60;;
69596;SDS011;70000;51.176;-115.568;2023-12-22T02:31:33;6.30;;;2.40;;
69596;SDS011;70000;51.176;-115.568;2023-12-22T02:34:07;7.30;;;2.90;;
69596;SDS011;70000;51.176;-115.568;2023-12-22T02:36:42;7.40;;;3.30;;
69596;SDS011;70000;51.176;-115.568;2023-12-22T02:39:13;7.20;;;2.70;;
69596;SDS011;70000;51.176;-115.568;2023-12-22T02:41:45;7.00;;;2.80;;
69596;SDS011;70000;51.176;-115.568;2023-12-22T02:44:15;7.50;;;3.20;;
69596;SDS011;70000;51.176;-115.568;2023-12-22T02:46:45;7.40;;;2.90;;
69596;SDS011;70000;51.176;-115.568;2023-12-22T02:49:14;5.10;;;1.90;;
69596;SDS011;70000;51.176;-115.568;2023-12-22T02:51:44;5.40;;;2.00;;
69596;SDS011;70000;51.176;-115.568;2023-12-22T02:54:14;7.70;;;2.30;;
69596;SDS011;70000;51.176;-115.568;2023-12-22T02:56:46;5.80;;;1.90;;
69596;SDS011;70000;51.176;-115.568;2023-12-22T02:59:15;6.20;;;2.50;;
69596;SDS011;70000;51.176;-115.568;2023-12-22T03:01:44;8.20;;;3.50;;
69596;SDS011;70000;51.176;-115.568;2023-12-22T03:04:19;6.40;;;2.70;;
69596;SDS011;70000;51.176;-115.568;2023-12-22T03:06:48;8.00;;;3.30;;
69596;SDS011;70000;51.176;-115.568;2023-12-22T03:09:17;9.80;;;3.50;;
69596;SDS011;70000;51.176;-115.568;2023-12-22T03:11:46;8.10;;;2.90;;
69596;SDS011;70000;51.176;-115.568;2023-12-22T03:14:16;6.40;;;2.40;;
69596;SDS011;70000;51.176;-115.568;2023-12-22T03:16:45;6.40;;;2.70;;
69596;SDS011;70000;51.176;-115.568;2023-12-22T03:19:18;7.30;;;3.10;;
69596;SDS011;70000;51.176;-115.568;2023-12-22T03:21:48;8.10;;;3.10;;
69596;SDS011;70000;51.176;-115.568;2023-12-22T03:26:52;7.70;;;2.90;;
69596;SDS011;70000;51.176;-115.568;2023-12-22T03:29:33;5.90;;;2.20;;
69596;SDS011;70000;51.176;-115.568;2023-12-22T03:32:02;6.30;;;2.00;;
69596;SDS011;70000;51.176;-115.568;2023-12-22T03:34:35;5.50;;;1.70;;
69596;SDS011;70000;51.176;-115.568;2023-12-22T03:37:10;5.00;;;1.70;;
69596;SDS011;70000;51.176;-115.568;2023-12-22T03:42:03;4.80;;;1.50;;
69596;SDS011;70000;51.176;-115.568;2023-12-22T03:44:33;4.70;;;1.60;;
69596;SDS011;70000;51.176;-115.568;2023-12-22T03:50:32;5.30;;;1.80;;
69596;SDS011;70000;51.176;-115.568;2023-12-22T03:53:00;4.80;;;1.30;;
69596;SDS011;70000;51.176;-115.568;2023-12-22T03:55:29;4.50;;;1.40;;
69596;SDS011;70000;51.176;-115.568;2023-12-22T03:57:58;6.30;;;1.90;;
69596;SDS011;70000;51.176;-115.568;2023-12-22T04:00:26;4.90;;;1.90;;
69596;SDS011;70000;51.176;-115.568;2023-12-22T04:02:54;4.80;;;1.50;;
69596;SDS011;70000;51.176;-115.568;2023-12-22T04:05:29;5.10;;;1.60;;
69596;SDS011;70000;51.176;-115.568;2023-12-22T04:07:57;6.00;;;2.30;;
69596;SDS011;70000;51.176;-115.568;2023-12-22T04:10:32;5.70;;;1.90;;
69596;SDS011;70000;51.176;-115.568;2023-12-22T04:13:00;4.00;;;1.10;;
69596;SDS011;70000;51.176;-115.568;2023-12-22T04:18:31;3.90;;;1.10;;
69596;SDS011;70000;51.176;-115.568;2023-12-22T04:21:01;4.10;;;1.40;;
69596;SDS011;70000;51.176;-115.568;2023-12-22T04:23:30;3.80;;;1.30;;
69596;SDS011;70000;51.176;-115.568;2023-12-22T04:25:59;3.90;;;1.20;;
69596;SDS011;70000;51.176;-115.568;2023-12-22T04:28:30;4.30;;;1.50;;
69596;SDS011;70000;51.176;-115.568;2023-12-22T04:30:59;4.60;;;1.60;;
69596;SDS011;70000;51.176;-115.568;2023-12-22T04:33:28;4.10;;;1.30;;
69596;SDS011;70000;51.176;-115.568;2023-12-22T04:35:57;3.70;;;1.10;;
69596;SDS011;70000;51.176;-115.568;2023-12-22T04:38:26;4.40;;;1.20;;
69596;SDS011;70000;51.176;-115.568;2023-12-22T04:40:55;4.60;;;1.40;;
69596;SDS011;70000;51.176;-115.568;2023-12-22T04:43:25;4.10;;;1.30;;
69596;SDS011;70000;51.176;-115.568;2023-12-22T04:45:53;5.20;;;1.70;;
69596;SDS011;70000;51.176;-115.568;2023-12-22T04:48:23;4.20;;;1.40;;
69596;SDS011;70000;51.176;-115.568;2023-12-22T04:50:52;4.40;;;1.30;;
69596;SDS011;70000;51.176;-115.568;2023-12-22T04:53:21;5.30;;;1.60;;
69596;SDS011;70000;51.176;-115.568;2023-12-22T04:55:51;4.90;;;1.80;;
69596;SDS011;70000;51.176;-115.568;2023-12-22T04:58:20;4.30;;;1.60;;
69596;SDS011;70000;51.176;-115.568;2023-12-22T05:00:50;4.50;;;1.30;;
69596;SDS011;70000;51.176;-115.568;2023-12-22T05:03:19;4.30;;;1.10;;
69596;SDS011;70000;51.176;-115.568;2023-12-22T05:05:48;3.90;;;1.30;;
69596;SDS011;70000;51.176;-115.568;2023-12-22T05:08:18;4.20;;;1.40;;
69596;SDS011;70000;51.176;-115.568;2023-12-22T05:10:49;4.70;;;1.50;;
69596;SDS011;70000;51.176;-115.568;2023-12-22T05:13:18;4.00;;;1.30;;
69596;SDS011;70000;51.176;-115.568;2023-12-22T05:15:47;4.30;;;1.40;;
69596;SDS011;70000;51.176;-115.568;2023-12-22T05:18:16;4.20;;;1.40;;
69596;SDS011;70000;51.176;-115.568;2023-12-22T05:20:45;4.60;;;1.70;;
69596;SDS011;70000;51.176;-115.568;2023-12-22T05:25:43;4.40;;;1.40;;
69596;SDS011;70000;51.176;-115.568;2023-12-22T05:28:12;4.00;;;1.10;;
69596;SDS011;70000;51.176;-115.568;2023-12-22T05:30:41;4.80;;;1.60;;
69596;SDS011;70000;51.176;-115.568;2023-12-22T05:33:10;5.00;;;1.40;;
69596;SDS011;70000;51.176;-115.568;2023-12-22T05:38:51;3.80;;;1.00;;
69596;SDS011;70000;51.176;-115.568;2023-12-22T05:41:20;5.40;;;1.70;;
69596;SDS011;70000;51.176;-115.568;2023-12-22T05:43:50;4.60;;;1.70;;
69596;SDS011;70000;51.176;-115.568;2023-12-22T05:46:19;4.90;;;1.50;;
69596;SDS011;70000;51.176;-115.568;2023-12-22T05:48:48;4.80;;;1.30;;
69596;SDS011;70000;51.176;-115.568;2023-12-22T05:51:20;4.30;;;1.40;;
69596;SDS011;70000;51.176;-115.568;2023-12-22T05:53:51;4.50;;;1.50;;
69596;SDS011;70000;51.176;-115.568;2023-12-22T05:56:21;4.60;;;1.60;;
69596;SDS011;70000;51.176;-115.568;2023-12-22T05:58:53;4.80;;;1.60;;
69596;SDS011;70000;51.176;-115.568;2023-12-22T06:01:22;5.20;;;2.30;;
69596;SDS011;70000;51.176;-115.568;2023-12-22T06:03:52;3.90;;;1.20;;
69596;SDS011;70000;51.176;-115.568;2023-12-22T06:06:22;4.10;;;1.20;;
69596;SDS011;70000;51.176;-115.568;2023-12-22T06:08:51;4.20;;;1.40;;
69596;SDS011;70000;51.176;-115.568;2023-12-22T06:11:20;4.30;;;1.40;;
69596;SDS011;70000;51.176;-115.568;2023-12-22T06:13:49;4.20;;;1.40;;
69596;SDS011;70000;51.176;-115.568;2023-12-22T06:16:19;4.30;;;1.60;;
69596;SDS011;70000;51.176;-115.568;2023-12-22T06:18:48;4.50;;;1.50;;
69596;SDS011;70000;51.176;-115.568;2023-12-22T06:21:17;4.20;;;1.30;;
69596;SDS011;70000;51.176;-115.568;2023-12-22T06:23:46;4.10;;;1.20;;
69596;SDS011;70000;51.176;-115.568;2023-12-22T06:26:15;5.80;;;1.60;;
69596;SDS011;70000;51.176;-115.568;2023-12-22T06:31:47;3.50;;;1.20;;
69596;SDS011;70000;51.176;-115.568;2023-12-22T06:34:18;4.10;;;1.30;;
69596;SDS011;70000;51.176;-115.568;2023-12-22T06:36:47;4.50;;;1.60;;
69596;SDS011;70000;51.176;-115.568;2023-12-22T06:39:17;4.50;;;1.50;;
69596;SDS011;70000;51.176;-115.568;2023-12-22T06:41:49;4.50;;;1.70;;
69596;SDS011;70000;51.176;-115.568;2023-12-22T06:44:18;4.10;;;1.30;;
69596;SDS011;70000;51.176;-115.568;2023-12-22T06:46:47;4.50;;;1.60;;
69596;SDS011;70000;51.176;-115.568;2023-12-22T06:49:16;4.30;;;1.50;;
69596;SDS011;70000;51.176;-115.568;2023-12-22T06:51:45;4.30;;;1.30;;
69596;SDS011;70000;51.176;-115.568;2023-12-22T06:54:14;4.50;;;1.70;;
69596;SDS011;70000;51.176;-115.568;2023-12-22T06:56:44;4.30;;;1.40;;
69596;SDS011;70000;51.176;-115.568;2023-12-22T06:59:13;3.50;;;1.10;;
69596;SDS011;70000;51.176;-115.568;2023-12-22T07:01:44;4.40;;;1.40;;
69596;SDS011;70000;51.176;-115.568;2023-12-22T07:04:29;4.50;;;1.70;;
69596;SDS011;70000;51.176;-115.568;2023-12-22T07:06:58;4.10;;;1.30;;
69596;SDS011;70000;51.176;-115.568;2023-12-22T07:09:29;4.30;;;1.60;;
69596;SDS011;70000;51.176;-115.568;2023-12-22T07:11:58;4.20;;;1.50;;
69596;SDS011;70000;51.176;-115.568;2023-12-22T07:14:28;4.20;;;1.40;;
69596;SDS011;70000;51.176;-115.568;2023-12-22T07:16:57;4.40;;;1.50;;
69596;SDS011;70000;51.176;-115.568;2023-12-22T07:19:26;4.20;;;1.40;;
69596;SDS011;70000;51.176;-115.568;2023-12-22T07:23:33;4.00;;;1.30;;
69596;SDS011;70000;51.176;-115.568;2023-12-22T07:26:01;3.70;;;1.20;;
69596;SDS011;70000;51.176;-115.568;2023-12-22T07:28:31;4.20;;;1.30;;
69596;SDS011;70000;51.176;-115.568;2023-12-22T07:31:21;4.00;;;1.40;;
69596;SDS011;70000;51.176;-115.568;2023-12-22T07:33:51;4.50;;;1.60;;
69596;SDS011;70000;51.176;-115.568;2023-12-22T07:36:20;4.50;;;1.60;;
69596;SDS011;70000;51.176;-115.568;2023-12-22T07:38:49;4.60;;;1.70;;
69596;SDS011;70000;51.176;-115.568;2023-12-22T07:41:18;4.40;;;1.60;;
69596;SDS011;70000;51.176;-115.568;2023-12-22T07:43:47;4.20;;;1.40;;
69596;SDS011;70000;51.176;-115.568;2023-12-22T07:46:20;4.80;;;1.60;;
69596;SDS011;70000;51.176;-115.568;2023-12-22T07:48:52;4.40;;;1.70;;
69596;SDS011;70000;51.176;-115.568;2023-12-22T07:51:25;4.00;;;1.30;;
69596;SDS011;70000;51.176;-115.568;2023-12-22T07:53:54;4.70;;;1.70;;
69596;SDS011;70000;51.176;-115.568;2023-12-22T07:56:23;4.70;;;1.40;;
69596;SDS011;70000;51.176;-115.568;2023-12-22T07:58:52;4.90;;;1.60;;
69596;SDS011;70000;51.176;-115.568;2023-12-22T08:01:35;4.10;;;1.40;;
69596;SDS011;70000;51.176;-115.568;2023-12-22T08:04:04;4.20;;;1.40;;
69596;SDS011;70000;51.176;-115.568;2023-12-22T08:06:33;4.30;;;1.20;;
69596;SDS011;70000;51.176;-115.568;2023-12-22T08:09:04;4.40;;;1.60;;
69596;SDS011;70000;51.176;-115.568;2023-12-22T08:11:34;4.20;;;1.50;;
69596;SDS011;70000;51.176;-115.568;2023-12-22T08:14:03;4.70;;;1.40;;
69596;SDS011;70000;51.176;-115.568;2023-12-22T08:16:32;5.00;;;1.30;;
69596;SDS011;70000;51.176;-115.568;2023-12-22T08:19:01;4.60;;;1.20;;
69596;SDS011;70000;51.176;-115.568;2023-12-22T08:21:30;4.10;;;1.20;;
69596;SDS011;70000;51.176;-115.568;2023-12-22T08:24:11;4.60;;;1.50;;
69596;SDS011;70000;51.176;-115.568;2023-12-22T08:26:49;4.60;;;1.80;;
69596;SDS011;70000;51.176;-115.568;2023-12-22T08:29:19;4.20;;;1.50;;
69596;SDS011;70000;51.176;-115.568;2023-12-22T08:31:48;4.50;;;1.50;;
69596;SDS011;70000;51.176;-115.568;2023-12-22T08:34:17;3.70;;;1.10;;
69596;SDS011;70000;51.176;-115.568;2023-12-22T08:36:46;4.10;;;1.20;;
69596;SDS011;70000;51.176;-115.568;2023-12-22T08:39:16;4.00;;;1.20;;
69596;SDS011;70000;51.176;-115.568;2023-12-22T08:41:46;4.20;;;1.30;;
69596;SDS011;70000;51.176;-115.568;2023-12-22T08:44:16;4.00;;;1.20;;
69596;SDS011;70000;51.176;-115.568;2023-12-22T08:46:45;3.70;;;1.10;;
69596;SDS011;70000;51.176;-115.568;2023-12-22T08:49:14;4.00;;;1.40;;
69596;SDS011;70000;51.176;-115.568;2023-12-22T08:51:44;4.20;;;1.40;;
69596;SDS011;70000;51.176;-115.568;2023-12-22T08:54:13;4.10;;;1.20;;
69596;SDS011;70000;51.176;-115.568;2023-12-22T08:56:43;4.10;;;1.30;;
69596;SDS011;70000;51.176;-115.568;2023-12-22T08:59:12;3.40;;;0.90;;
69596;SDS011;70000;51.176;-115.568;2023-12-22T09:01:41;4.20;;;1.10;;
69596;SDS011;70000;51.176;-115.568;2023-12-22T09:04:10;4.00;;;1.20;;
69596;SDS011;70000;51.176;-115.568;2023-12-22T09:06:39;4.20;;;1.40;;
69596;SDS011;70000;51.176;-115.568;2023-12-22T09:09:08;4.10;;;1.10;;
69596;SDS011;70000;51.176;-115.568;2023-12-22T09:11:37;4.30;;;1.40;;
69596;SDS011;70000;51.176;-115.568;2023-12-22T09:14:07;4.10;;;1.40;;
69596;SDS011;70000;51.176;-115.568;2023-12-22T09:16:38;4.10;;;1.30;;
69596;SDS011;70000;51.176;-115.568;2023-12-22T09:19:07;4.60;;;1.50;;
69596;SDS011;70000;51.176;-115.568;2023-12-22T09:21:36;3.70;;;1.20;;
69596;SDS011;70000;51.176;-115.568;2023-12-22T09:24:05;3.80;;;1.20;;
69596;SDS011;70000;51.176;-115.568;2023-12-22T09:26:34;4.80;;;1.50;;
69596;SDS011;70000;51.176;-115.568;2023-12-22T09:29:03;4.40;;;1.40;;
69596;SDS011;70000;51.176;-115.568;2023-12-22T09:31:33;4.70;;;1.60;;
69596;SDS011;70000;51.176;-115.568;2023-12-22T09:34:02;5.00;;;1.90;;
69596;SDS011;70000;51.176;-115.568;2023-12-22T09:36:31;4.40;;;1.50;;
69596;SDS011;70000;51.176;-115.568;2023-12-22T09:39:00;5.10;;;1.60;;
69596;SDS011;70000;51.176;-115.568;2023-12-22T09:41:29;4.10;;;1.50;;
69596;SDS011;70000;51.176;-115.568;2023-12-22T09:43:59;4.50;;;1.80;;
69596;SDS011;70000;51.176;-115.568;2023-12-22T09:46:33;4.60;;;1.70;;
69596;SDS011;70000;51.176;-115.568;2023-12-22T09:49:07;4.70;;;1.70;;
69596;SDS011;70000;51.176;-115.568;2023-12-22T09:51:37;4.20;;;1.40;;
69596;SDS011;70000;51.176;-115.568;2023-12-22T09:54:09;5.00;;;1.50;;
69596;SDS011;70000;51.176;-115.568;2023-12-22T09:56:40;4.10;;;1.50;;
69596;SDS011;70000;51.176;-115.568;2023-12-22T09:59:13;4.30;;;1.50;;
69596;SDS011;70000;51.176;-115.568;2023-12-22T10:01:45;4.40;;;1.50;;
69596;SDS011;70000;51.176;-115.568;2023-12-22T10:04:16;4.30;;;1.60;;
69596;SDS011;70000;51.176;-115.568;2023-12-22T10:06:47;4.20;;;1.60;;
69596;SDS011;70000;51.176;-115.568;2023-12-22T10:12:45;4.30;;;1.50;;
69596;SDS011;70000;51.176;-115.568;2023-12-22T10:26:34;4.10;;;1.40;;
69596;SDS011;70000;51.176;-115.568;2023-12-22T10:29:03;4.60;;;1.60;;
69596;SDS011;70000;51.176;-115.568;2023-12-22T10:31:40;4.30;;;1.50;;
69596;SDS011;70000;51.176;-115.568;2023-12-22T10:34:09;4.10;;;1.40;;
69596;SDS011;70000;51.176;-115.568;2023-12-22T10:36:39;4.30;;;1.50;;
69596;SDS011;70000;51.176;-115.568;2023-12-22T10:39:08;5.00;;;1.70;;
69596;SDS011;70000;51.176;-115.568;2023-12-22T10:41:38;5.00;;;1.40;;
69596;SDS011;70000;51.176;-115.568;2023-12-22T10:44:06;4.50;;;1.50;;
69596;SDS011;70000;51.176;-115.568;2023-12-22T10:46:36;4.30;;;1.40;;
69596;SDS011;70000;51.176;-115.568;2023-12-22T10:49:07;3.90;;;1.20;;
69596;SDS011;70000;51.176;-115.568;2023-12-22T10:51:36;4.30;;;1.60;;
69596;SDS011;70000;51.176;-115.568;2023-12-22T10:54:05;5.00;;;1.80;;
69596;SDS011;70000;51.176;-115.568;2023-12-22T10:56:34;4.50;;;1.60;;
69596;SDS011;70000;51.176;-115.568;2023-12-22T10:59:03;4.40;;;1.50;;
69596;SDS011;70000;51.176;-115.568;2023-12-22T11:01:33;3.90;;;1.40;;
69596;SDS011;70000;51.176;-115.568;2023-12-22T11:04:09;4.70;;;1.60;;
69596;SDS011;70000;51.176;-115.568;2023-12-22T11:06:45;4.40;;;1.50;;
69596;SDS011;70000;51.176;-115.568;2023-12-22T11:09:21;4.70;;;1.40;;
69596;SDS011;70000;51.176;-115.568;2023-12-22T11:11:56;5.00;;;1.40;;
69596;SDS011;70000;51.176;-115.568;2023-12-22T11:17:35;4.50;;;1.50;;
69596;SDS011;70000;51.176;-115.568;2023-12-22T11:20:13;3.80;;;1.10;;
69596;SDS011;70000;51.176;-115.568;2023-12-22T11:22:43;4.30;;;1.40;;
69596;SDS011;70000;51.176;-115.568;2023-12-22T11:25:14;4.10;;;1.40;;
69596;SDS011;70000;51.176;-115.568;2023-12-22T11:27:44;4.30;;;1.40;;
69596;SDS011;70000;51.176;-115.568;2023-12-22T11:30:16;4.10;;;1.40;;
69596;SDS011;70000;51.176;-115.568;2023-12-22T11:32:49;4.40;;;1.40;;
69596;SDS011;70000;51.176;-115.568;2023-12-22T11:35:27;4.30;;;1.40;;
69596;SDS011;70000;51.176;-115.568;2023-12-22T11:38:01;4.00;;;1.30;;
69596;SDS011;70000;51.176;-115.568;2023-12-22T11:40:33;4.40;;;1.40;;
69596;SDS011;70000;51.176;-115.568;2023-12-22T11:43:03;3.90;;;1.30;;
69596;SDS011;70000;51.176;-115.568;2023-12-22T11:45:32;4.80;;;1.40;;
69596;SDS011;70000;51.176;-115.568;2023-12-22T11:48:08;4.10;;;1.30;;
69596;SDS011;70000;51.176;-115.568;2023-12-22T11:50:39;3.70;;;1.10;;
69596;SDS011;70000;51.176;-115.568;2023-12-22T11:53:37;3.90;;;1.20;;
69596;SDS011;70000;51.176;-115.568;2023-12-22T11:56:07;3.80;;;1.30;;
69596;SDS011;70000;51.176;-115.568;2023-12-22T12:01:22;4.40;;;1.30;;
69596;SDS011;70000;51.176;-115.568;2023-12-22T12:03:55;3.80;;;1.10;;
69596;SDS011;70000;51.176;-115.568;2023-12-22T12:09:05;5.10;;;1.20;;
69596;SDS011;70000;51.176;-115.568;2023-12-22T12:14:32;3.90;;;1.10;;
69596;SDS011;70000;51.176;-115.568;2023-12-22T12:17:09;4.10;;;1.20;;
69596;SDS011;70000;51.176;-115.568;2023-12-22T12:19:39;4.00;;;1.20;;
69596;SDS011;70000;51.176;-115.568;2023-12-22T12:22:12;4.90;;;1.60;;
69596;SDS011;70000;51.176;-115.568;2023-12-22T12:24:42;3.90;;;1.40;;
69596;SDS011;70000;51.176;-115.568;2023-12-22T12:27:11;4.20;;;1.50;;
69596;SDS011;70000;51.176;-115.568;2023-12-22T12:29:45;4.70;;;1.70;;
69596;SDS011;70000;51.176;-115.568;2023-12-22T12:32:14;4.10;;;1.30;;
69596;SDS011;70000;51.176;-115.568;2023-12-22T12:34:44;4.00;;;1.10;;
69596;SDS011;70000;51.176;-115.568;2023-12-22T12:37:16;4.40;;;1.50;;
69596;SDS011;70000;51.176;-115.568;2023-12-22T12:39:48;3.90;;;1.20;;
69596;SDS011;70000;51.176;-115.568;2023-12-22T12:42:21;4.60;;;1.40;;
69596;SDS011;70000;51.176;-115.568;2023-12-22T12:44:53;4.10;;;1.40;;
69596;SDS011;70000;51.176;-115.568;2023-12-22T12:50:25;5.20;;;1.40;;
69596;SDS011;70000;51.176;-115.568;2023-12-22T12:52:56;4.20;;;1.40;;
69596;SDS011;70000;51.176;-115.568;2023-12-22T12:55:25;4.80;;;1.30;;
69596;SDS011;70000;51.176;-115.568;2023-12-22T12:57:56;3.80;;;1.10;;
69596;SDS011;70000;51.176;-115.568;2023-12-22T13:00:32;4.40;;;1.20;;
69596;SDS011;70000;51.176;-115.568;2023-12-22T13:03:05;4.20;;;1.40;;
69596;SDS011;70000;51.176;-115.568;2023-12-22T13:05:34;3.50;;;1.10;;
69596;SDS011;70000;51.176;-115.568;2023-12-22T13:08:11;4.40;;;1.60;;
69596;SDS011;70000;51.176;-115.568;2023-12-22T13:10:41;4.50;;;1.60;;
69596;SDS011;70000;51.176;-115.568;2023-12-22T13:13:11;4.30;;;1.50;;
69596;SDS011;70000;51.176;-115.568;2023-12-22T13:15:40;3.50;;;1.10;;
69596;SDS011;70000;51.176;-115.568;2023-12-22T13:18:09;4.20;;;1.60;;
69596;SDS011;70000;51.176;-115.568;2023-12-22T13:20:39;3.90;;;1.10;;
69596;SDS011;70000;51.176;-115.568;2023-12-22T13:23:11;4.80;;;1.40;;
69596;SDS011;70000;51.176;-115.568;2023-12-22T13:25:40;4.00;;;1.30;;
69596;SDS011;70000;51.176;-115.568;2023-12-22T13:28:09;4.00;;;1.40;;
69596;SDS011;70000;51.176;-115.568;2023-12-22T13:30:39;4.60;;;1.60;;
69596;SDS011;70000;51.176;-115.568;2023-12-22T13:33:12;4.30;;;1.60;;
69596;SDS011;70000;51.176;-115.568;2023-12-22T13:35:42;4.30;;;1.60;;
69596;SDS011;70000;51.176;-115.568;2023-12-22T13:38:11;5.30;;;1.60;;
69596;SDS011;70000;51.176;-115.568;2023-12-22T13:40:45;4.50;;;1.30;;
69596;SDS011;70000;51.176;-115.568;2023-12-22T13:43:16;4.20;;;1.20;;
69596;SDS011;70000;51.176;-115.568;2023-12-22T13:48:18;4.00;;;1.30;;
69596;SDS011;70000;51.176;-115.568;2023-12-22T13:51:15;5.00;;;1.50;;
69596;SDS011;70000;51.176;-115.568;2023-12-22T13:53:49;4.20;;;1.40;;
69596;SDS011;70000;51.176;-115.568;2023-12-22T13:56:19;4.10;;;1.40;;
69596;SDS011;70000;51.176;-115.568;2023-12-22T13:58:48;4.10;;;1.30;;
69596;SDS011;70000;51.176;-115.568;2023-12-22T14:01:17;4.40;;;1.50;;
69596;SDS011;70000;51.176;-115.568;2023-12-22T14:03:46;3.70;;;1.10;;
69596;SDS011;70000;51.176;-115.568;2023-12-22T14:06:16;4.30;;;1.30;;
69596;SDS011;70000;51.176;-115.568;2023-12-22T14:08:47;4.20;;;1.30;;
69596;SDS011;70000;51.176;-115.568;2023-12-22T14:11:16;4.60;;;1.40;;
69596;SDS011;70000;51.176;-115.568;2023-12-22T14:13:45;4.40;;;1.60;;
69596;SDS011;70000;51.176;-115.568;2023-12-22T14:16:15;4.00;;;1.20;;
69596;SDS011;70000;51.176;-115.568;2023-12-22T14:18:43;4.10;;;1.30;;
69596;SDS011;70000;51.176;-115.568;2023-12-22T14:21:13;4.20;;;1.40;;
69596;SDS011;70000;51.176;-115.568;2023-12-22T14:27:01;4.60;;;1.60;;
69596;SDS011;70000;51.176;-115.568;2023-12-22T14:29:30;3.60;;;1.10;;
69596;SDS011;70000;51.176;-115.568;2023-12-22T14:31:59;5.40;;;1.40;;
69596;SDS011;70000;51.176;-115.568;2023-12-22T14:34:29;4.20;;;1.60;;
69596;SDS011;70000;51.176;-115.568;2023-12-22T14:37:00;5.00;;;1.50;;
69596;SDS011;70000;51.176;-115.568;2023-12-22T14:39:29;4.80;;;1.40;;
69596;SDS011;70000;51.176;-115.568;2023-12-22T14:41:59;3.90;;;1.30;;
69596;SDS011;70000;51.176;-115.568;2023-12-22T14:44:31;4.40;;;1.40;;
69596;SDS011;70000;51.176;-115.568;2023-12-22T14:47:00;4.50;;;1.70;;
69596;SDS011;70000;51.176;-115.568;2023-12-22T14:49:29;4.50;;;1.70;;
69596;SDS011;70000;51.176;-115.568;2023-12-22T14:51:58;4.00;;;1.10;;
69596;SDS011;70000;51.176;-115.568;2023-12-22T14:54:27;4.50;;;1.50;;
69596;SDS011;70000;51.176;-115.568;2023-12-22T14:56:56;4.60;;;1.40;;
69596;SDS011;70000;51.176;-115.568;2023-12-22T14:59:30;4.20;;;1.40;;
69596;SDS011;70000;51.176;-115.568;2023-12-22T15:01:59;4.00;;;1.40;;
69596;SDS011;70000;51.176;-115.568;2023-12-22T15:04:31;5.30;;;1.50;;
69596;SDS011;70000;51.176;-115.568;2023-12-22T15:07:01;4.00;;;1.20;;
69596;SDS011;70000;51.176;-115.568;2023-12-22T15:09:30;4.30;;;1.50;;
69596;SDS011;70000;51.176;-115.568;2023-12-22T15:11:59;4.90;;;1.60;;
69596;SDS011;70000;51.176;-115.568;2023-12-22T15:14:29;4.20;;;1.50;;
69596;SDS011;70000;51.176;-115.568;2023-12-22T15:16:58;4.40;;;1.60;;
69596;SDS011;70000;51.176;-115.568;2023-12-22T15:19:27;4.10;;;1.40;;
69596;SDS011;70000;51.176;-115.568;2023-12-22T15:21:56;4.20;;;1.50;;
69596;SDS011;70000;51.176;-115.568;2023-12-22T15:24:25;4.70;;;1.30;;
69596;SDS011;70000;51.176;-115.568;2023-12-22T15:26:56;3.90;;;1.40;;
69596;SDS011;70000;51.176;-115.568;2023-12-22T15:29:25;4.40;;;1.50;;
69596;SDS011;70000;51.176;-115.568;2023-12-22T15:31:54;4.80;;;1.50;;